Time;durP1;ratioP1;P1;durP2;ratioP2;P2;SDS_P1;SDS_P2;PMS_P1;PMS_P2;Temp;Humidity;BMP_temperature;BMP_pressure;BME280_temperature;BME280_humidity;BME280_pressure;Samples;Min_cycle;Max_cycle;Signal;HPM_P1;HPM_P2
2021/06/06 00:00:54;;;;;;;4.75;4.20;;;;;;;17.89;58.22;99105.59;5050746;28;20106;-79
2021/06/06 00:03:30;;;;;;;5.40;3.50;;;;;;;17.87;58.04;99110.53;5050932;28;20027;-79
2021/06/06 00:06:02;;;;;;;4.65;4.25;;;;;;;17.85;57.91;99110.84;5050747;28;20162;-79
2021/06/06 00:08:28;;;;;;;5.63;4.05;;;;;;;17.80;57.95;99105.63;5050851;28;20036;-80
2021/06/06 00:10:58;;;;;;;7.45;3.95;;;;;;;17.76;57.79;99102.78;5050551;28;20065;-80
2021/06/06 00:13:24;;;;;;;3.67;3.38;;;;;;;17.72;57.92;99107.25;5050743;28;20120;-80
2021/06/06 00:15:50;;;;;;;4.07;3.78;;;;;;;17.69;57.77;99105.19;5050468;28;20364;-80
2021/06/06 00:18:16;;;;;;;6.88;3.88;;;;;;;17.65;58.02;99103.44;5050605;28;20021;-80
2021/06/06 00:20:41;;;;;;;4.25;3.72;;;;;;;17.60;58.12;99094.38;5050608;28;20029;-79
2021/06/06 00:23:07;;;;;;;4.22;3.72;;;;;;;17.57;58.05;99099.63;5050397;28;20139;-78
2021/06/06 00:25:34;;;;;;;4.07;3.75;;;;;;;17.55;58.24;99110.78;5050546;28;20032;-78
2021/06/06 00:27:59;;;;;;;5.53;3.80;;;;;;;17.52;58.06;99097.88;5050307;28;20025;-78
2021/06/06 00:30:25;;;;;;;5.88;3.80;;;;;;;17.51;58.27;99103.63;5050287;28;20112;-77
2021/06/06 00:32:51;;;;;;;3.58;3.30;;;;;;;17.48;58.43;99107.78;5049945;28;20041;-79
2021/06/06 00:35:17;;;;;;;3.80;3.50;;;;;;;17.46;58.58;99111.91;5050279;28;20023;-80
2021/06/06 00:37:44;;;;;;;4.63;3.88;;;;;;;17.44;58.62;99099.50;5050240;28;20041;-79
2021/06/06 00:40:14;;;;;;;4.50;3.40;;;;;;;17.44;58.48;99104.91;5050130;28;20044;-78
2021/06/06 00:42:40;;;;;;;5.20;3.47;;;;;;;17.41;58.76;99100.13;5050128;28;20032;-79
2021/06/06 00:45:09;;;;;;;3.25;2.92;;;;;;;17.30;58.80;99082.66;5050122;28;20043;-79
2021/06/06 00:47:34;;;;;;;4.00;3.70;;;;;;;17.36;58.55;99092.19;5050192;28;20025;-79
2021/06/06 00:50:03;;;;;;;3.67;3.38;;;;;;;17.32;58.69;99091.25;5049982;28;20032;-79
2021/06/06 00:52:32;;;;;;;4.70;3.35;;;;;;;17.34;58.53;99099.81;5050134;28;20159;-79
2021/06/06 00:54:58;;;;;;;3.80;3.50;;;;;;;17.33;58.63;99098.22;5049583;28;20025;-79
2021/06/06 00:57:31;;;;;;;5.00;4.50;;;;;;;17.31;58.59;99095.06;5049959;28;20395;-79
2021/06/06 01:00:06;;;;;;;4.45;3.33;;;;;;;17.33;58.71;99097.44;5049770;28;20013;-79
2021/06/06 01:02:32;;;;;;;6.47;3.30;;;;;;;17.28;58.38;99096.50;5049906;28;20028;-79
2021/06/06 01:04:57;;;;;;;3.65;3.30;;;;;;;17.31;58.35;99097.78;5049760;28;20388;-79
2021/06/06 01:07:23;;;;;;;3.47;3.15;;;;;;;17.30;58.58;99098.88;5049926;28;20028;-79
2021/06/06 01:09:48;;;;;;;3.80;3.50;;;;;;;17.29;58.65;99095.38;5049793;28;20025;-79
2021/06/06 01:12:24;;;;;;;6.28;3.85;;;;;;;17.29;58.70;99091.88;5049955;28;20029;-79
2021/06/06 01:14:55;;;;;;;3.33;3.03;;;;;;;17.26;58.72;99097.94;5049660;28;20086;-79
2021/06/06 01:17:33;;;;;;;4.65;3.38;;;;;;;17.22;58.72;99084.28;5049726;28;20028;-79
2021/06/06 01:20:30;;;;;;;3.40;3.10;;;;;;;17.20;58.37;99083.78;5049705;28;20036;-79
2021/06/06 01:23:13;;;;;;;3.40;3.10;;;;;;;17.16;58.63;99088.22;5051270;28;20033;-79
2021/06/06 01:25:44;;;;;;;4.97;3.05;;;;;;;17.11;58.45;99089.19;5050024;28;20139;-78
2021/06/06 01:28:25;;;;;;;6.72;3.92;;;;;;;17.06;58.56;99088.56;5049404;28;20032;-79
2021/06/06 01:30:57;;;;;;;3.47;3.17;;;;;;;17.02;58.33;99083.00;5049396;28;20029;-79
2021/06/06 01:33:29;;;;;;;3.60;2.95;;;;;;;16.97;58.91;99085.84;5049460;28;20048;-78
2021/06/06 01:35:59;;;;;;;3.22;2.92;;;;;;;16.93;58.74;99090.28;5049355;28;20013;-79
2021/06/06 01:38:34;;;;;;;3.58;3.28;;;;;;;16.89;59.21;99083.91;5049541;28;20063;-78
2021/06/06 01:41:05;;;;;;;4.15;3.42;;;;;;;16.86;59.01;99084.56;5049402;28;20021;-79
2021/06/06 01:43:38;;;;;;;4.43;3.67;;;;;;;16.76;59.06;99064.03;5049533;28;20060;-79
2021/06/06 01:46:08;;;;;;;3.45;3.15;;;;;;;16.78;58.94;99073.44;5049290;28;20040;-79
2021/06/06 01:48:38;;;;;;;4.75;3.50;;;;;;;16.75;58.92;99076.75;5049435;28;20086;-79
2021/06/06 01:51:21;;;;;;;4.25;3.10;;;;;;;16.72;58.63;99080.09;5049222;28;20017;-79
2021/06/06 01:53:48;;;;;;;3.65;3.35;;;;;;;16.66;58.83;99067.84;5052530;28;20035;-79
2021/06/06 01:56:19;;;;;;;4.32;3.85;;;;;;;16.64;58.90;99070.84;5053177;28;20020;-79
2021/06/06 01:58:46;;;;;;;3.75;3.45;;;;;;;16.62;58.97;99073.09;5054933;28;20037;-79
2021/06/06 02:01:19;;;;;;;3.72;3.42;;;;;;;16.55;59.25;99070.06;5053090;28;20387;-79
2021/06/06 02:03:49;;;;;;;4.18;3.22;;;;;;;16.55;59.03;99070.06;5053334;28;20550;-79
2021/06/06 02:06:16;;;;;;;6.43;3.55;;;;;;;16.51;59.05;99062.91;5053121;28;20074;-79
2021/06/06 02:08:45;;;;;;;5.40;3.60;;;;;;;16.46;58.99;99072.72;5053190;28;20025;-78
2021/06/06 02:11:13;;;;;;;;;;;;;;;16.45;59.13;99073.84;5053338;28;20052;-79
2021/06/06 02:13:43;;;;;;;;;;;;;;;16.43;58.96;99076.06;5053521;28;19908;-79
2021/06/06 02:16:12;;;;;;;5.43;3.70;;;;;;;16.40;58.85;99071.28;5052800;28;19915;-79
2021/06/06 02:18:37;;;;;;;3.63;3.33;;;;;;;16.40;59.16;99073.19;5054236;28;20100;-79
2021/06/06 02:21:04;;;;;;;7.53;2.97;;;;;;;16.39;59.05;99071.59;5052661;28;20486;-79
2021/06/06 02:23:35;;;;;;;3.83;2.90;;;;;;;16.39;58.86;99074.31;5052600;28;20029;-78
2021/06/06 02:26:29;;;;;;;3.88;3.22;;;;;;;16.37;58.84;99071.13;5052522;28;20032;-79
2021/06/06 02:29:06;;;;;;;3.63;3.33;;;;;;;16.33;58.94;99065.56;5052650;28;20036;-79
2021/06/06 02:31:45;;;;;;;3.58;3.28;;;;;;;16.31;58.58;99065.88;5052788;28;20029;-79
2021/06/06 02:34:36;;;;;;;3.50;3.20;;;;;;;16.29;58.62;99065.38;5052482;28;20075;-78
2021/06/06 02:37:13;;;;;;;3.45;2.92;;;;;;;16.28;58.65;99060.31;5052426;28;20350;-79
2021/06/06 02:39:43;;;;;;;9.70;3.45;;;;;;;16.26;58.74;99059.81;5052310;28;20431;-79
2021/06/06 02:42:14;;;;;;;3.55;3.25;;;;;;;16.22;58.62;99061.56;5052169;28;20071;-78
2021/06/06 02:44:45;;;;;;;4.85;3.40;;;;;;;16.21;58.88;99068.06;5052469;28;20029;-79
2021/06/06 02:47:12;;;;;;;3.50;3.03;;;;;;;16.16;58.93;99067.09;5053774;28;20040;-79
2021/06/06 02:49:42;;;;;;;2.85;2.65;;;;;;;16.16;59.09;99064.41;5052448;28;20032;-78
2021/06/06 02:52:38;;;;;;;4.47;3.20;;;;;;;16.13;58.88;99059.63;5052134;28;20060;-79
2021/06/06 02:55:09;;;;;;;5.63;3.47;;;;;;;16.10;58.28;99057.56;5052144;28;20052;-79
2021/06/06 02:57:37;;;;;;;4.25;3.28;;;;;;;16.11;58.64;99058.34;5052200;28;20021;-78
2021/06/06 03:00:10;;;;;;;3.60;3.15;;;;;;;16.19;58.38;99059.50;5051966;28;20025;-78
2021/06/06 03:02:40;;;;;;;4.72;4.05;;;;;;;16.24;58.13;99051.25;5052115;28;20053;-79
2021/06/06 03:05:08;;;;;;;4.45;4.03;;;;;;;16.32;58.37;99053.97;5051876;28;20025;-79
2021/06/06 03:07:38;;;;;;;5.28;3.97;;;;;;;16.46;58.21;99050.34;5052167;28;20483;-79
2021/06/06 03:10:09;;;;;;;4.68;4.18;;;;;;;16.63;57.85;99049.59;5051868;28;20056;-78
2021/06/06 03:12:37;;;;;;;5.90;3.47;;;;;;;16.93;57.20;99055.97;5051841;28;20551;-78
2021/06/06 03:15:06;;;;;;;5.45;4.32;;;;;;;17.25;56.65;99061.22;5055036;28;20160;-78
2021/06/06 03:17:39;;;;;;;4.68;3.85;;;;;;;17.59;55.58;99051.44;5055213;28;20552;-79
2021/06/06 03:20:10;;;;;;;4.65;4.22;;;;;;;18.02;54.08;99061.34;5055334;28;20033;-79
2021/06/06 03:22:39;;;;;;;5.50;4.13;;;;;;;18.39;52.94;99058.94;5053331;28;20021;-79
2021/06/06 03:25:30;;;;;;;3.58;3.28;;;;;;;18.85;51.20;99069.13;5051619;28;20376;-79
2021/06/06 03:27:56;;;;;;;3.85;3.33;;;;;;;19.28;50.48;99067.19;5046439;28;20033;-79
2021/06/06 03:30:38;;;;;;;3.20;3.00;;;;;;;19.72;48.89;99067.53;5051766;28;20033;-79
2021/06/06 03:33:08;;;;;;;9.00;3.92;;;;;;;20.13;48.07;99068.50;5051426;28;20109;-79
2021/06/06 03:35:34;;;;;;;5.80;3.33;;;;;;;20.54;47.11;99062.38;5051527;28;20433;-79
2021/06/06 03:37:59;;;;;;;4.15;3.20;;;;;;;20.94;45.98;99062.38;5051325;28;20154;-80
2021/06/06 03:40:31;;;;;;;3.45;2.83;;;;;;;21.35;45.03;99065.06;5051567;28;20025;-79
2021/06/06 03:42:56;;;;;;;3.78;3.25;;;;;;;21.80;44.10;99054.16;5051381;28;20063;-80
2021/06/06 03:45:22;;;;;;;3.42;3.13;;;;;;;22.23;43.19;99064.16;5051408;28;20056;-80
2021/06/06 03:47:48;;;;;;;5.13;2.97;;;;;;;22.60;42.34;99054.09;5051392;28;20029;-80
2021/06/06 03:50:16;;;;;;;3.28;2.80;;;;;;;23.04;41.58;99053.81;5051060;28;20081;-80
2021/06/06 03:52:41;;;;;;;5.85;2.60;;;;;;;23.42;41.04;99054.16;5051336;28;20385;-80
2021/06/06 03:55:10;;;;;;;3.05;2.78;;;;;;;23.85;39.98;99049.44;5051156;28;20058;-80
2021/06/06 03:57:36;;;;;;;7.72;2.80;;;;;;;24.27;39.14;99050.50;5051000;28;20025;-80
2021/06/06 04:00:06;;;;;;;2.63;2.40;;;;;;;24.68;38.45;99047.16;5050947;28;20025;-79
2021/06/06 04:02:32;;;;;;;3.55;2.55;;;;;;;25.03;37.65;99041.34;5052164;28;20035;-80
2021/06/06 04:04:57;;;;;;;3.05;2.75;;;;;;;25.41;36.98;99047.66;5050953;28;20111;-79
2021/06/06 04:07:23;;;;;;;3.97;2.72;;;;;;;25.76;36.16;99050.31;5051090;28;20047;-80
2021/06/06 04:09:48;;;;;;;4.28;2.70;;;;;;;26.12;35.84;99045.91;5052701;28;20123;-80
2021/06/06 04:12:14;;;;;;;4.05;2.92;;;;;;;26.45;35.33;99046.09;5051094;28;20406;-80
2021/06/06 04:14:39;;;;;;;3.33;2.97;;;;;;;26.79;34.67;99043.16;5050833;28;20035;-80
2021/06/06 04:17:05;;;;;;;3.08;2.88;;;;;;;27.17;34.42;99049.13;5050303;28;20629;-80
2021/06/06 04:19:30;;;;;;;4.43;3.10;;;;;;;27.49;33.84;99045.72;5052087;28;20024;-80
2021/06/06 04:21:56;;;;;;;3.83;2.40;;;;;;;27.83;33.26;99050.03;5050637;28;20115;-80
2021/06/06 04:24:21;;;;;;;3.33;2.70;;;;;;;28.15;32.85;99044.56;5050432;28;20482;-79
2021/06/06 04:26:48;;;;;;;6.25;2.80;;;;;;;28.43;32.42;99048.44;5050789;28;20025;-79
2021/06/06 04:29:14;;;;;;;4.10;3.80;;;;;;;28.68;32.00;99050.31;5050496;28;20024;-80
2021/06/06 04:31:39;;;;;;;5.70;3.17;;;;;;;28.95;31.61;99042.34;5051541;28;20369;-79
2021/06/06 04:34:05;;;;;;;3.05;2.75;;;;;;;29.24;31.32;99036.69;5050099;28;20717;-81
2021/06/06 04:36:30;;;;;;;2.50;2.30;;;;;;;29.51;30.96;99034.16;5050351;28;20529;-79
2021/06/06 04:38:56;;;;;;;3.67;2.92;;;;;;;29.81;30.39;99042.97;5050325;28;20036;-79
2021/06/06 04:41:21;;;;;;;4.85;3.33;;;;;;;30.06;30.39;99042.78;5050157;28;20476;-79
2021/06/06 04:43:47;;;;;;;2.95;2.75;;;;;;;30.31;30.02;99042.53;5050819;28;20500;-79
2021/06/06 04:46:16;;;;;;;3.33;2.30;;;;;;;30.59;29.90;99042.66;5051684;28;20028;-79
2021/06/06 04:48:44;;;;;;;6.82;3.75;;;;;;;30.85;29.53;99038.41;5051466;28;20021;-81
2021/06/06 04:51:19;;;;;;;4.43;3.42;;;;;;;31.13;28.91;99042.00;5049939;28;20087;-80
2021/06/06 04:53:49;;;;;;;5.15;3.17;;;;;;;31.36;28.50;99038.50;5050123;28;20388;-80
2021/06/06 04:56:17;;;;;;;4.57;3.08;;;;;;;31.56;28.63;99037.81;5049779;28;20024;-81
2021/06/06 04:58:43;;;;;;;3.28;2.90;;;;;;;31.75;28.38;99028.03;5051743;28;20431;-80
2021/06/06 05:01:09;;;;;;;2.90;2.70;;;;;;;31.87;27.95;99027.44;5049867;28;20048;-80
2021/06/06 05:03:35;;;;;;;5.88;3.20;;;;;;;31.90;28.10;99034.13;5051250;28;20460;-80
2021/06/06 05:06:01;;;;;;;9.48;3.95;;;;;;;32.07;27.86;99032.25;5049904;28;20541;-80
2021/06/06 05:08:26;;;;;;;4.22;3.20;;;;;;;32.21;27.52;99037.53;5049898;28;20060;-80
2021/06/06 05:10:53;;;;;;;6.43;4.75;;;;;;;32.34;27.73;99037.69;5049907;28;20051;-80
2021/06/06 05:13:19;;;;;;;8.43;5.18;;;;;;;32.49;27.22;99026.31;5049679;28;20391;-80
2021/06/06 05:15:45;;;;;;;11.23;5.13;;;;;;;32.66;26.86;99035.47;5049810;28;20020;-79
2021/06/06 05:18:12;;;;;;;6.47;5.15;;;;;;;32.79;26.25;99041.94;5049469;28;20388;-79
2021/06/06 05:20:45;;;;;;;9.87;6.60;;;;;;;32.87;26.29;99040.59;5051066;28;20017;-80
2021/06/06 05:23:11;;;;;;;14.27;8.02;;;;;;;32.97;25.82;99043.56;5049730;28;20055;-80
2021/06/06 05:25:38;;;;;;;14.90;9.50;;;;;;;32.95;25.94;99037.69;5050661;28;20056;-79
2021/06/06 05:28:06;;;;;;;13.55;7.05;;;;;;;32.94;25.79;99036.88;5052473;28;20024;-81
2021/06/06 05:30:34;;;;;;;6.05;3.85;;;;;;;33.00;25.54;99040.69;5053764;28;20032;-80
2021/06/06 05:33:00;;;;;;;3.42;2.78;;;;;;;33.11;25.43;99040.47;5053152;28;20071;-81
2021/06/06 05:35:29;;;;;;;4.05;3.15;;;;;;;33.14;25.11;99047.13;5053170;28;20455;-81
2021/06/06 05:37:55;;;;;;;2.97;2.67;;;;;;;33.18;25.03;99047.84;5053285;28;20067;-80
2021/06/06 05:40:25;;;;;;;3.78;2.47;;;;;;;33.31;24.75;99045.19;5053439;28;20025;-80
2021/06/06 05:42:51;;;;;;;2.80;2.60;;;;;;;33.34;24.84;99053.44;5053523;28;20415;-79
2021/06/06 05:45:18;;;;;;;3.80;2.72;;;;;;;33.42;25.25;99034.63;5053156;28;20024;-79
2021/06/06 05:47:44;;;;;;;2.92;2.30;;;;;;;33.49;24.84;99042.00;5053531;28;20391;-80
2021/06/06 05:50:13;;;;;;;2.00;1.90;;;;;;;33.55;25.10;99045.81;5053344;28;20025;-81
2021/06/06 05:52:38;;;;;;;3.22;3.00;;;;;;;33.72;24.88;99040.28;5054532;28;20070;-81
2021/06/06 05:55:06;;;;;;;2.80;2.60;;;;;;;33.60;24.26;99038.97;5053166;28;20029;-80
2021/06/06 05:57:32;;;;;;;2.78;2.58;;;;;;;33.62;24.50;99040.09;5053329;28;20490;-80
2021/06/06 05:59:58;;;;;;;2.70;2.50;;;;;;;33.66;24.74;99035.25;5053315;28;20025;-80
2021/06/06 06:02:23;;;;;;;2.85;2.60;;;;;;;33.70;24.66;99040.69;5053009;28;20044;-80
2021/06/06 06:04:49;;;;;;;5.82;2.80;;;;;;;33.82;24.65;99031.66;5054850;28;20032;-80
2021/06/06 06:07:16;;;;;;;2.95;2.70;;;;;;;33.94;24.65;99037.75;5052981;28;20029;-80
2021/06/06 06:09:41;;;;;;;3.00;2.80;;;;;;;34.02;24.03;99036.38;5053246;28;20488;-80
2021/06/06 06:12:07;;;;;;;3.30;3.00;;;;;;;33.62;24.54;99042.88;5053921;28;20046;-80
2021/06/06 06:14:33;;;;;;;3.03;2.80;;;;;;;33.35;25.33;99043.91;5053119;28;20488;-79
2021/06/06 06:16:59;;;;;;;2.95;2.50;;;;;;;33.31;25.44;99034.13;5052999;28;20599;-80
2021/06/06 06:19:25;;;;;;;3.60;2.60;;;;;;;33.16;25.76;99045.50;5052698;28;20124;-80
2021/06/06 06:21:50;;;;;;;3.50;3.17;;;;;;;32.95;25.87;99051.53;5052908;28;20025;-78
2021/06/06 06:24:16;;;;;;;3.72;3.00;;;;;;;32.65;26.83;99048.53;5054205;28;20033;-79
2021/06/06 06:26:41;;;;;;;3.22;2.40;;;;;;;32.54;27.00;99047.97;5052806;28;20025;-80
2021/06/06 06:29:08;;;;;;;3.08;2.88;;;;;;;32.01;26.46;99043.00;5052520;28;20108;-80
2021/06/06 06:31:34;;;;;;;4.45;2.75;;;;;;;31.30;27.52;99043.72;5052666;28;20480;-80
2021/06/06 06:34:01;;;;;;;6.40;3.22;;;;;;;30.70;28.09;99046.06;5052571;28;20048;-80
2021/06/06 06:36:27;;;;;;;3.45;3.15;;;;;;;30.15;28.91;99045.84;5052418;28;20012;-80
2021/06/06 06:38:53;;;;;;;5.38;3.25;;;;;;;29.85;29.04;99044.50;5053664;28;20048;-79
2021/06/06 06:41:21;;;;;;;3.50;3.20;;;;;;;29.71;30.45;99044.63;5052340;28;20017;-80
2021/06/06 06:43:46;;;;;;;5.68;2.92;;;;;;;29.28;30.01;99044.94;5052358;28;20031;-80
2021/06/06 06:46:12;;;;;;;3.28;3.00;;;;;;;29.02;30.19;99033.28;5052206;28;20016;-80
2021/06/06 06:48:39;;;;;;;3.05;2.70;;;;;;;28.88;31.34;99039.63;5052351;28;20095;-80
2021/06/06 06:51:05;;;;;;;3.25;2.95;;;;;;;28.81;31.53;99032.19;5052245;28;20025;-80
2021/06/06 06:53:30;;;;;;;3.42;2.90;;;;;;;28.76;31.94;99040.88;5052065;28;20028;-80
2021/06/06 06:55:56;;;;;;;3.53;2.88;;;;;;;28.63;32.28;99032.25;5052180;28;20517;-79
2021/06/06 06:58:22;;;;;;;2.60;2.40;;;;;;;28.68;31.82;99036.53;5053252;28;20017;-80
2021/06/06 07:00:50;;;;;;;4.90;2.85;;;;;;;28.62;32.14;99036.16;5052163;28;20602;-80
2021/06/06 07:03:19;;;;;;;3.88;3.00;;;;;;;28.57;32.27;99036.59;5051875;28;20456;-80
2021/06/06 07:05:45;;;;;;;4.35;2.78;;;;;;;28.47;31.50;99034.66;5052079;28;20044;-80
2021/06/06 07:08:15;;;;;;;2.80;2.45;;;;;;;28.34;31.54;99035.06;5051816;28;20013;-80
2021/06/06 07:10:42;;;;;;;3.78;3.17;;;;;;;28.16;32.23;99031.59;5051924;28;20025;-80
2021/06/06 07:13:09;;;;;;;3.05;2.85;;;;;;;27.91;32.18;99026.88;5051692;28;20075;-80
2021/06/06 07:15:36;;;;;;;6.00;3.25;;;;;;;27.81;33.11;99025.72;5051876;28;20083;-80
2021/06/06 07:18:03;;;;;;;3.88;3.40;;;;;;;27.55;33.08;99035.13;5051797;28;20044;-80
2021/06/06 07:20:34;;;;;;;3.95;3.60;;;;;;;27.38;33.16;99028.41;5051609;28;20434;-80
2021/06/06 07:23:00;;;;;;;8.38;4.20;;;;;;;27.25;33.40;99019.75;5052697;28;20103;-79
2021/06/06 07:25:26;;;;;;;4.10;3.67;;;;;;;27.20;34.16;99034.66;5051466;28;20024;-80
2021/06/06 07:27:52;;;;;;;3.78;3.20;;;;;;;27.09;34.82;99025.63;5051719;28;20435;-80
2021/06/06 07:30:23;;;;;;;4.53;3.20;;;;;;;27.04;34.42;99023.22;5051234;28;20033;-80
2021/06/06 07:32:49;;;;;;;3.45;3.13;;;;;;;27.04;34.78;99021.28;5051405;28;20045;-80
2021/06/06 07:35:15;;;;;;;4.22;3.33;;;;;;;27.09;33.88;99017.38;5052570;28;20029;-80
2021/06/06 07:37:41;;;;;;;3.40;3.10;;;;;;;27.16;34.67;99022.88;5051433;28;20025;-80
2021/06/06 07:40:09;;;;;;;4.28;2.92;;;;;;;27.22;34.15;99024.06;5051361;28;20024;-80
2021/06/06 07:42:35;;;;;;;4.22;2.97;;;;;;;27.17;35.16;99021.69;5051381;28;20036;-80
2021/06/06 07:45:05;;;;;;;4.53;3.30;;;;;;;27.09;35.24;99026.38;5052864;28;20013;-80
2021/06/06 07:47:31;;;;;;;4.68;3.08;;;;;;;27.04;35.83;99025.97;5051042;28;20079;-80
2021/06/06 07:49:57;;;;;;;3.92;3.22;;;;;;;27.05;34.95;99022.06;5050406;28;20025;-80
2021/06/06 07:52:23;;;;;;;4.63;3.40;;;;;;;26.88;35.03;99016.16;5050982;28;20261;-80
2021/06/06 07:54:48;;;;;;;3.63;3.28;;;;;;;26.91;35.88;99017.31;5051058;28;20017;-80
2021/06/06 07:57:14;;;;;;;4.20;2.75;;;;;;;26.87;35.14;99022.00;5050807;28;20021;-80
2021/06/06 07:59:39;;;;;;;3.25;2.88;;;;;;;26.89;35.99;99014.97;5052365;28;20012;-80
2021/06/06 08:02:05;;;;;;;3.47;2.92;;;;;;;26.92;35.62;99016.16;5050974;28;20029;-80
2021/06/06 08:04:31;;;;;;;2.97;2.78;;;;;;;26.92;35.06;99018.91;5050793;28;20444;-80
2021/06/06 08:06:57;;;;;;;8.35;3.90;;;;;;;26.91;34.62;99014.59;5050936;28;20029;-81
2021/06/06 08:09:23;;;;;;;4.55;3.88;;;;;;;26.93;35.54;99015.00;5050660;28;20025;-81
2021/06/06 08:11:49;;;;;;;3.92;3.25;;;;;;;26.87;36.50;99014.56;5051833;28;20032;-81
2021/06/06 08:14:14;;;;;;;4.78;2.75;;;;;;;26.90;35.31;99013.78;5051552;28;20504;-81
2021/06/06 08:16:41;;;;;;;3.60;3.13;;;;;;;26.86;36.15;99020.44;5050707;28;20031;-81
2021/06/06 08:19:07;;;;;;;3.25;2.92;;;;;;;26.86;34.63;99012.22;5050736;28;20411;-81
2021/06/06 08:21:40;;;;;;;3.55;3.03;;;;;;;26.75;35.92;99017.66;5050531;28;20025;-81
2021/06/06 08:24:07;;;;;;;3.70;3.17;;;;;;;26.82;36.41;99004.75;5050614;28;20448;-81
2021/06/06 08:26:33;;;;;;;2.95;2.75;;;;;;;26.82;35.13;99003.97;5049991;28;20111;-81
2021/06/06 08:28:59;;;;;;;4.68;3.03;;;;;;;26.80;34.83;99011.81;5050643;28;20361;-80
2021/06/06 08:31:28;;;;;;;3.25;3.03;;;;;;;26.74;35.15;99016.84;5050255;28;20035;-80
2021/06/06 08:33:55;;;;;;;4.13;3.38;;;;;;;26.74;35.40;99016.84;5050090;28;20455;-81
2021/06/06 08:36:27;;;;;;;3.70;3.38;;;;;;;26.72;35.83;99005.47;5050177;28;20116;-80
2021/06/06 08:38:54;;;;;;;3.08;2.85;;;;;;;26.63;34.23;99008.56;5050419;28;20455;-80
2021/06/06 08:41:20;;;;;;;8.23;3.23;;;;;;;26.55;35.77;99001.50;5033491;28;20463;-79
2021/06/06 08:43:53;;;;;;;5.10;3.75;;;;;;;26.50;35.05;99005.38;5049941;28;20025;-81
2021/06/06 08:46:21;;;;;;;4.32;3.67;;;;;;;26.47;35.96;99008.13;5049909;28;20055;-80
2021/06/06 08:48:46;;;;;;;;;;;;;;;26.42;35.38;98997.53;5050661;28;20039;-79
2021/06/06 08:51:32;;;;;;;4.13;3.72;;;;;;;26.35;36.86;99001.00;5049790;28;19908;-80
2021/06/06 08:54:21;;;;;;;4.15;3.80;;;;;;;26.37;36.98;99004.91;5042369;28;20029;-80
2021/06/06 08:56:52;;;;;;;5.18;3.30;;;;;;;26.49;36.10;99006.56;5050029;28;20483;-80
2021/06/06 08:59:22;;;;;;;6.30;3.40;;;;;;;26.52;36.56;98996.78;5049550;28;20031;-81
2021/06/06 09:02:17;;;;;;;4.90;3.70;;;;;;;26.65;35.92;98997.22;5049774;28;20035;-80
2021/06/06 09:04:43;;;;;;;4.18;3.78;;;;;;;26.70;35.27;98994.09;5034156;28;20040;-80
2021/06/06 09:07:16;;;;;;;6.10;3.05;;;;;;;26.82;36.47;98995.75;5049940;28;20055;-80
2021/06/06 09:09:47;;;;;;;4.53;3.88;;;;;;;26.89;35.99;98986.75;5049816;28;20108;-80
2021/06/06 09:12:19;;;;;;;3.60;3.30;;;;;;;26.93;35.68;98993.81;5049827;28;20503;-80
2021/06/06 09:14:47;;;;;;;3.47;3.17;;;;;;;26.99;35.67;98984.03;5049785;28;20057;-80
2021/06/06 09:17:19;;;;;;;4.38;3.40;;;;;;;26.96;34.32;98981.28;5051271;28;20133;-80
2021/06/06 09:19:52;;;;;;;5.22;3.33;;;;;;;26.81;34.32;98980.47;5050213;28;20021;-80
2021/06/06 09:22:37;;;;;;;3.47;3.17;;;;;;;26.75;35.46;98980.03;5049711;28;20120;-79
2021/06/06 09:25:34;;;;;;;4.47;3.35;;;;;;;26.73;35.35;98967.84;5051873;28;20028;-79
2021/06/06 09:28:34;;;;;;;3.00;2.80;;;;;;;26.74;36.09;98977.66;5044470;28;20495;-78
2021/06/06 09:31:16;;;;;;;3.78;3.08;;;;;;;26.78;35.51;98973.78;5055829;28;20530;-78
2021/06/06 09:34:04;;;;;;;3.88;3.30;;;;;;;26.80;37.24;98976.91;5053756;28;20441;-79
2021/06/06 09:36:39;;;;;;;4.07;3.20;;;;;;;26.87;35.82;98978.91;5051773;28;20100;-79
2021/06/06 09:39:08;;;;;;;3.38;3.17;;;;;;;26.79;34.38;98967.13;5050092;28;20094;-78
2021/06/06 09:41:50;;;;;;;3.83;3.47;;;;;;;26.75;35.15;98971.03;5049736;28;20017;-79
2021/06/06 09:44:15;;;;;;;4.07;3.78;;;;;;;26.73;36.56;98967.84;5049890;28;20025;-79
2021/06/06 09:46:50;;;;;;;3.42;3.10;;;;;;;26.72;35.00;98969.81;5049770;28;20179;-79
2021/06/06 09:49:40;;;;;;;3.60;3.30;;;;;;;26.63;34.24;98963.91;5050017;28;20463;-78
2021/06/06 09:52:14;;;;;;;3.50;3.22;;;;;;;26.56;35.38;98964.66;5049665;28;20390;-79
2021/06/06 09:54:45;;;;;;;3.60;3.30;;;;;;;26.50;35.06;98968.94;5049249;28;20035;-78
2021/06/06 09:57:25;;;;;;;3.65;3.42;;;;;;;26.47;35.05;98958.75;5049483;28;20025;-78
2021/06/06 09:59:52;;;;;;;3.83;3.53;;;;;;;26.43;34.82;98956.00;5049421;28;20032;-78
2021/06/06 10:02:29;;;;;;;3.50;3.22;;;;;;;26.44;34.50;98940.31;5049381;28;20480;-80
2021/06/06 10:05:06;;;;;;;5.63;3.55;;;;;;;26.47;34.95;98942.31;5049646;28;20036;-81
2021/06/06 10:07:37;;;;;;;3.40;3.10;;;;;;;26.51;34.91;98941.16;5049130;28;20029;-80
2021/06/06 10:10:18;;;;;;;3.83;3.28;;;;;;;26.55;34.83;98929.41;5049334;28;20047;-79
2021/06/06 10:12:47;;;;;;;4.70;4.35;;;;;;;26.61;35.92;98936.88;5049344;28;20094;-80
2021/06/06 10:15:19;;;;;;;6.72;5.35;;;;;;;26.64;35.46;98932.56;5053002;28;20028;-80
2021/06/06 10:17:56;;;;;;;5.10;3.90;;;;;;;26.71;35.91;98938.06;5053049;28;20104;-79
2021/06/06 10:20:27;;;;;;;4.60;3.35;;;;;;;26.81;35.31;98933.81;5052753;28;20442;-80
2021/06/06 10:23:03;;;;;;;4.25;2.67;;;;;;;26.88;34.47;98936.56;5054069;28;20029;-79
2021/06/06 10:25:57;;;;;;;5.38;2.78;;;;;;;26.98;34.11;98941.28;5052766;28;20025;-78
2021/06/06 10:28:40;;;;;;;3.53;3.20;;;;;;;27.08;33.13;98934.25;5052674;28;20391;-80
2021/06/06 10:31:24;;;;;;;3.00;2.70;;;;;;;27.17;32.49;98926.41;5052909;28;20025;-80
2021/06/06 10:34:01;;;;;;;3.33;3.10;;;;;;;27.22;32.91;98922.50;5052605;28;20116;-80
2021/06/06 10:36:29;;;;;;;3.25;2.95;;;;;;;27.18;32.28;98924.44;5052101;28;20037;-79
2021/06/06 10:38:55;;;;;;;2.75;2.55;;;;;;;27.22;33.78;98928.00;5052603;28;20024;-79
2021/06/06 10:41:36;;;;;;;2.33;2.22;;;;;;;27.28;31.81;98920.94;5052497;28;20029;-79
2021/06/06 10:44:19;;;;;;;2.63;2.42;;;;;;;27.36;31.74;98918.19;5053989;28;20044;-79
2021/06/06 10:46:53;;;;;;;2.45;2.25;;;;;;;27.43;30.49;98907.22;5052349;28;20072;-79
2021/06/06 10:49:28;;;;;;;5.00;2.47;;;;;;;27.48;30.17;98902.09;5052696;28;20495;-80
2021/06/06 10:52:05;;;;;;;2.50;2.30;;;;;;;27.52;30.95;98901.34;5052650;28;20033;-79
2021/06/06 10:54:36;;;;;;;2.20;2.10;;;;;;;27.56;30.77;98897.41;5052108;28;20120;-79
2021/06/06 10:57:14;;;;;;;6.28;3.28;;;;;;;27.65;31.11;98894.25;5052448;28;20087;-79
2021/06/06 10:59:54;;;;;;;3.03;2.78;;;;;;;27.69;31.12;98900.50;5052394;28;20033;-79
2021/06/06 11:02:50;;;;;;;2.58;2.38;;;;;;;27.66;29.37;98895.03;5053917;28;20029;-79
2021/06/06 11:05:46;;;;;;;3.97;2.50;;;;;;;27.62;30.51;98889.53;5052496;28;20133;-79
2021/06/06 11:08:26;;;;;;;2.60;2.40;;;;;;;27.54;30.56;98882.47;5052218;28;20366;-79
2021/06/06 11:10:54;;;;;;;2.65;2.45;;;;;;;27.51;31.10;98881.31;5052094;28;20115;-79
2021/06/06 11:13:34;;;;;;;2.33;2.17;;;;;;;27.51;29.75;98880.53;5052098;28;20435;-79
2021/06/06 11:16:28;;;;;;;2.42;2.22;;;;;;;27.55;30.65;98876.63;5051860;28;20120;-79
2021/06/06 11:18:59;;;;;;;3.00;2.70;;;;;;;27.63;31.14;98878.16;5052009;28;20392;-80
2021/06/06 11:21:40;;;;;;;4.63;2.53;;;;;;;27.71;30.68;98858.91;5051575;28;20092;-80
2021/06/06 11:24:23;;;;;;;2.47;2.28;;;;;;;27.78;30.07;98867.94;5051602;28;20407;-79
2021/06/06 11:27:09;;;;;;;2.60;2.40;;;;;;;27.75;28.95;98857.72;5051145;28;20029;-79
2021/06/06 11:29:56;;;;;;;2.55;2.13;;;;;;;27.76;28.16;98856.53;5051495;28;20055;-78
2021/06/06 11:32:25;;;;;;;3.37;2.03;;;;;;;27.72;29.28;98865.97;5051163;28;20459;-79
2021/06/06 11:34:56;;;;;;;2.63;2.28;;;;;;;27.76;29.53;98859.28;5051619;28;20036;-79
2021/06/06 11:37:27;;;;;;;3.35;2.13;;;;;;;27.80;29.27;98856.53;5051242;28;20028;-79
2021/06/06 11:39:55;;;;;;;2.58;2.38;;;;;;;27.79;29.02;98850.25;5051524;28;20052;-79
2021/06/06 11:42:23;;;;;;;2.40;2.20;;;;;;;27.78;29.45;98856.13;5051533;28;20434;-79
2021/06/06 11:44:53;;;;;;;2.50;2.30;;;;;;;27.83;29.56;98861.25;5051299;28;20392;-79
2021/06/06 11:47:44;;;;;;;2.58;2.10;;;;;;;27.85;28.60;98842.38;5051321;28;20376;-79
2021/06/06 11:50:22;;;;;;;2.28;2.10;;;;;;;27.91;28.49;98840.00;5052136;28;20021;-79